Time;durP1;ratioP1;P1;durP2;ratioP2;P2;SDS_P1;SDS_P2;PMS_P1;PMS_P2;Temp;Humidity;BMP_temperature;BMP_pressure;BME280_temperature;BME280_humidity;BME280_pressure;Samples;Min_cycle;Max_cycle;Signal;HPM_P1;HPM_P2
2022/05/03 00:00:36;;;;;;;16.03;13.50;;;;;;;12.57;89.40;99944.19;5062350;28;20232;-60
2022/05/03 00:03:24;;;;;;;9.77;8.80;;;;;;;12.50;88.54;99938.63;5051901;28;20519;-60
2022/05/03 00:06:17;;;;;;;8.23;7.40;;;;;;;12.50;87.38;99932.63;5051132;28;20280;-60
2022/05/03 00:09:12;;;;;;;11.50;8.37;;;;;;;12.56;86.38;99935.63;5052900;28;20213;-60
2022/05/03 00:11:43;;;;;;;11.67;10.10;;;;;;;12.61;86.34;99932.75;5061353;28;20699;-60
2022/05/03 00:14:33;;;;;;;9.53;8.10;;;;;;;12.54;86.57;99937.50;5064956;28;20235;-60
2022/05/03 00:16:59;;;;;;;12.27;10.50;;;;;;;12.64;86.81;99940.28;5049742;28;20576;-60
2022/05/03 00:19:27;;;;;;;8.53;7.13;;;;;;;12.68;86.24;99931.41;5062419;28;20176;-59
2022/05/03 00:21:52;;;;;;;7.80;6.90;;;;;;;12.63;86.54;99933.47;5061139;28;20295;-60
2022/05/03 00:24:18;;;;;;;11.07;9.20;;;;;;;12.45;89.33;99924.34;5072165;28;20177;-61
2022/05/03 00:26:45;;;;;;;8.50;7.53;;;;;;;12.39;89.25;99918.69;5070530;28;20197;-61
2022/05/03 00:29:11;;;;;;;12.77;11.27;;;;;;;12.48;88.85;99919.81;5070796;28;20189;-60
2022/05/03 00:31:36;;;;;;;8.97;8.00;;;;;;;12.41;89.05;99921.16;5050748;28;20271;-60
2022/05/03 00:34:03;;;;;;;7.40;6.70;;;;;;;12.28;90.33;99915.97;5072086;28;20213;-59
2022/05/03 00:36:28;;;;;;;7.57;6.83;;;;;;;12.08;92.64;99920.66;5070345;28;20193;-60
2022/05/03 00:38:53;;;;;;;7.37;6.77;;;;;;;11.94;94.52;99918.09;5064544;28;20177;-60
2022/05/03 00:41:44;;;;;;;9.57;7.47;;;;;;;12.11;93.50;99920.44;5051881;28;20280;-60
2022/05/03 00:47:20;;;;;;;10.17;7.93;;;;;;;12.18;92.93;99915.72;5069367;28;20199;-61
2022/05/03 00:50:03;;;;;;;10.23;7.43;;;;;;;12.06;93.78;99921.69;5061813;28;20173;-60
2022/05/03 00:52:53;;;;;;;8.87;8.07;;;;;;;12.13;93.12;99914.38;5043462;28;20228;-60
2022/05/03 00:55:30;;;;;;;9.03;8.20;;;;;;;12.02;92.33;99915.88;5071778;28;20646;-60
2022/05/03 00:58:27;;;;;;;8.27;7.40;;;;;;;12.00;93.49;99914.34;5070003;28;20173;-59
2022/05/03 01:01:00;;;;;;;9.23;8.37;;;;;;;12.20;93.12;99905.31;5056218;28;20232;-60
2022/05/03 01:03:36;;;;;;;8.53;7.63;;;;;;;12.15;92.88;99915.09;5050279;28;20300;-61
2022/05/03 01:06:30;;;;;;;10.23;7.60;;;;;;;12.10;93.29;99915.38;5050143;28;20177;-60
2022/05/03 01:09:03;;;;;;;9.23;7.67;;;;;;;12.18;94.02;99912.31;5009708;28;20221;-60
2022/05/03 01:11:53;;;;;;;8.07;7.30;;;;;;;12.08;94.27;99910.34;4983035;28;20655;-61
2022/05/03 01:14:39;;;;;;;8.17;7.37;;;;;;;12.04;94.03;99911.44;4992788;28;20728;-60
2022/05/03 01:17:25;;;;;;;9.23;8.10;;;;;;;12.09;93.12;99914.56;4992431;28;20576;-59
2022/05/03 01:20:05;;;;;;;11.40;8.00;;;;;;;12.03;91.68;99906.38;5009318;28;20673;-59
2022/05/03 01:23:01;;;;;;;8.20;7.50;;;;;;;12.00;90.55;99915.16;4999729;28;20375;-60
2022/05/03 01:25:45;;;;;;;8.83;8.00;;;;;;;11.84;90.43;99914.44;4992626;28;20630;-61
2022/05/03 01:28:30;;;;;;;9.67;7.60;;;;;;;11.88;90.19;99921.03;4992320;28;20182;-59
2022/05/03 01:31:09;;;;;;;8.60;7.90;;;;;;;11.97;90.63;99922.25;4999585;28;20252;-59
2022/05/03 01:33:43;;;;;;;11.67;8.60;;;;;;;11.91;91.15;99913.94;5009110;28;20237;-60
2022/05/03 01:36:10;;;;;;;9.33;8.23;;;;;;;11.91;91.17;99910.56;4992446;28;20254;-59
2022/05/03 01:38:57;;;;;;;10.43;8.30;;;;;;;11.92;90.44;99914.75;4992934;28;20273;-59
2022/05/03 01:41:48;;;;;;;8.93;8.03;;;;;;;11.85;90.02;99913.53;4999234;28;21074;-60
2022/05/03 01:44:25;;;;;;;9.03;7.20;;;;;;;11.73;90.95;99912.53;5001291;28;20233;-60
2022/05/03 01:46:57;;;;;;;9.40;8.47;;;;;;;11.79;91.05;99913.00;5061154;28;20558;-59
2022/05/03 01:52:51;;;;;;;9.07;7.07;;;;;;;11.71;90.71;99912.63;5059409;28;20219;-60
2022/05/03 01:55:48;;;;;;;9.47;7.40;;;;;;;11.79;90.72;99907.84;5069846;28;20674;-60
2022/05/03 01:58:31;;;;;;;8.13;6.90;;;;;;;11.70;91.93;99905.81;5070650;28;20200;-60
2022/05/03 02:00:59;;;;;;;9.33;7.67;;;;;;;11.62;94.13;99910.59;5060247;28;20572;-60
2022/05/03 02:03:47;;;;;;;8.50;7.80;;;;;;;11.50;95.69;99908.78;5059441;28;20184;-60
2022/05/03 02:06:14;;;;;;;11.23;8.20;;;;;;;11.55;95.85;99901.63;5068486;28;20180;-60
2022/05/03 02:08:52;;;;;;;8.00;7.17;;;;;;;11.51;96.88;99910.44;5069691;28;20230;-60
2022/05/03 02:11:39;;;;;;;8.70;7.80;;;;;;;11.63;96.42;99905.38;5059113;28;20289;-61
2022/05/03 02:17:03;;;;;;;7.97;7.27;;;;;;;11.49;97.97;99900.25;5070552;28;20704;-59
2022/05/03 02:19:58;;;;;;;7.47;6.80;;;;;;;11.54;96.53;99907.69;5070688;28;20719;-60
2022/05/03 02:22:48;;;;;;;8.37;7.47;;;;;;;11.59;96.30;99905.66;5059458;28;20235;-60
2022/05/03 02:25:24;;;;;;;8.77;7.87;;;;;;;11.41;97.57;99910.19;5069636;28;20263;-60
2022/05/03 02:28:24;;;;;;;8.47;7.67;;;;;;;11.30;99.14;99916.00;5070015;28;20271;-57
2022/05/03 02:30:51;;;;;;;7.83;7.03;;;;;;;11.49;99.83;99910.56;5059354;28;20235;-59
2022/05/03 02:33:26;;;;;;;8.60;7.60;;;;;;;11.51;99.85;99918.19;5076498;28;20314;-61
2022/05/03 02:35:55;;;;;;;9.03;8.07;;;;;;;11.58;98.88;99916.88;5069428;28;20639;-60
2022/05/03 02:38:28;;;;;;;10.07;8.80;;;;;;;11.50;98.79;99919.09;5068948;28;20176;-60
2022/05/03 02:40:58;;;;;;;8.43;7.63;;;;;;;11.56;98.64;99918.72;5055186;28;20306;-59
2022/05/03 02:43:25;;;;;;;9.67;8.13;;;;;;;11.50;99.50;99919.94;5052061;28;20620;-59
2022/05/03 02:45:57;;;;;;;9.87;8.10;;;;;;;11.28;100.00;99915.25;5058483;28;20188;-60
2022/05/03 02:48:52;;;;;;;8.10;7.30;;;;;;;11.23;100.00;99919.88;5052039;28;20277;-59
2022/05/03 02:51:20;;;;;;;9.77;7.80;;;;;;;11.44;100.00;99915.97;5053426;28;20219;-59
2022/05/03 02:53:55;;;;;;;9.57;8.00;;;;;;;11.54;99.46;99916.25;5054879;28;20193;-60
2022/05/03 02:56:25;;;;;;;9.33;8.10;;;;;;;11.40;99.95;99914.53;5053721;28;20192;-60
2022/05/03 02:59:08;;;;;;;11.37;8.80;;;;;;;11.22;100.00;99916.44;5052769;28;20193;-60
2022/05/03 03:02:02;;;;;;;9.67;7.73;;;;;;;11.03;100.00;99919.31;5030787;28;20223;-59
2022/05/03 03:05:09;;;;;;;9.53;8.53;;;;;;;10.96;100.00;99918.00;5089300;28;20627;-59
2022/05/03 03:07:45;;;;;;;8.90;8.00;;;;;;;11.12;100.00;99917.94;5013977;28;20295;-60
2022/05/03 03:10:19;;;;;;;8.90;8.00;;;;;;;11.29;100.00;99917.72;5021316;28;20213;-60
2022/05/03 03:13:05;;;;;;;10.30;7.40;;;;;;;11.28;100.00;99910.13;5031612;28;20182;-59
2022/05/03 03:15:38;;;;;;;10.20;9.13;;;;;;;11.22;100.00;99919.03;5020797;28;20329;-59
2022/05/03 03:18:14;;;;;;;9.27;8.30;;;;;;;11.20;100.00;99920.03;5014286;28;20201;-59
2022/05/03 03:20:53;;;;;;;11.37;8.53;;;;;;;11.08;100.00;99919.03;4981691;28;20233;-59
2022/05/03 03:23:24;;;;;;;9.33;8.40;;;;;;;10.99;100.00;99920.41;4985937;28;20244;-60
2022/05/03 03:25:51;;;;;;;9.30;8.30;;;;;;;10.98;100.00;99911.84;4994841;28;20654;-58
2022/05/03 03:28:20;;;;;;;8.10;7.33;;;;;;;10.97;100.00;99917.09;4994491;28;20171;-59
2022/05/03 03:30:48;;;;;;;8.80;7.83;;;;;;;10.91;100.00;99922.59;4964877;28;20230;-60
2022/05/03 03:33:14;;;;;;;9.00;8.10;;;;;;;10.89;100.00;99920.13;4994654;28;20183;-59
2022/05/03 03:35:42;;;;;;;9.20;8.30;;;;;;;10.93;100.00;99918.19;5011134;28;20205;-59
2022/05/03 03:38:10;;;;;;;10.40;7.93;;;;;;;10.96;100.00;99918.84;5019100;28;20188;-60
2022/05/03 03:40:35;;;;;;;9.50;8.00;;;;;;;11.02;100.00;99919.41;5059942;28;20600;-60
2022/05/03 03:43:01;;;;;;;9.80;8.80;;;;;;;11.17;100.00;99912.50;5056700;28;20252;-59
2022/05/03 03:45:27;;;;;;;9.27;8.47;;;;;;;11.31;100.00;99912.50;5073144;28;20179;-63
2022/05/03 03:47:53;;;;;;;10.13;8.40;;;;;;;11.39;100.00;99912.03;5072539;28;20177;-60
2022/05/03 03:50:20;;;;;;;9.93;8.90;;;;;;;11.49;100.00;99918.28;5062431;28;20290;-60
2022/05/03 03:52:47;;;;;;;11.50;8.77;;;;;;;11.54;100.00;99907.69;5071863;28;20584;-60
2022/05/03 03:55:14;;;;;;;11.07;8.73;;;;;;;11.52;100.00;99910.34;5072706;28;20195;-60
2022/05/03 03:57:40;;;;;;;9.47;8.63;;;;;;;11.56;100.00;99916.97;5072427;28;20173;-59
2022/05/03 04:00:08;;;;;;;8.37;7.53;;;;;;;11.62;100.00;99915.75;5058405;28;20178;-60
2022/05/03 04:02:35;;;;;;;10.07;8.70;;;;;;;11.38;100.00;99916.34;5071596;28;20237;-59
2022/05/03 04:05:01;;;;;;;8.80;8.00;;;;;;;11.28;100.00;99913.50;5071497;28;20176;-60
2022/05/03 04:07:26;;;;;;;10.00;8.23;;;;;;;11.19;100.00;99913.22;5067259;28;20196;-61
2022/05/03 04:09:52;;;;;;;9.57;8.10;;;;;;;11.33;100.00;99920.97;5051189;28;20639;-60
2022/05/03 04:12:21;;;;;;;9.43;8.53;;;;;;;11.42;100.00;99919.56;5057828;28;20754;-60
2022/05/03 04:14:47;;;;;;;15.77;8.70;;;;;;;11.55;100.00;99924.81;5071070;28;20315;-60
2022/05/03 04:17:12;;;;;;;9.87;8.90;;;;;;;11.57;100.00;99923.78;5070722;28;20282;-60
2022/05/03 04:19:38;;;;;;;10.70;8.83;;;;;;;11.63;100.00;99922.56;5072350;28;20639;-61
2022/05/03 04:22:19;;;;;;;11.97;9.57;;;;;;;11.59;100.00;99923.69;5078254;28;20309;-61
2022/05/03 04:24:44;;;;;;;9.33;8.43;;;;;;;11.62;100.00;99929.50;5071358;28;20181;-61
2022/05/03 04:27:09;;;;;;;8.93;8.13;;;;;;;11.68;100.00;99930.84;5072179;28;20180;-60
2022/05/03 04:29:35;;;;;;;8.83;7.93;;;;;;;11.77;100.00;99930.28;5072070;28;20280;-60
2022/05/03 04:32:00;;;;;;;11.63;8.70;;;;;;;11.85;100.00;99936.72;5077533;28;20227;-59
2022/05/03 04:34:25;;;;;;;10.43;8.93;;;;;;;11.90;100.00;99940.66;5070929;28;20202;-60
2022/05/03 04:36:50;;;;;;;10.53;8.90;;;;;;;11.97;100.00;99933.41;5071595;28;20196;-61
2022/05/03 04:39:16;;;;;;;8.93;8.03;;;;;;;12.04;100.00;99931.25;5066230;28;20181;-60
2022/05/03 04:41:41;;;;;;;10.30;9.10;;;;;;;12.09;100.00;99936.94;5056653;28;20447;-59
2022/05/03 04:44:06;;;;;;;10.47;8.87;;;;;;;12.11;100.00;99935.09;5068196;28;20302;-60
2022/05/03 04:46:32;;;;;;;9.70;8.60;;;;;;;12.18;100.00;99932.94;5070545;28;20311;-60
2022/05/03 04:48:57;;;;;;;9.07;8.17;;;;;;;12.23;100.00;99939.47;5070815;28;20557;-59
2022/05/03 04:51:24;;;;;;;9.83;8.93;;;;;;;12.20;99.79;99942.22;5061298;28;20255;-60
2022/05/03 04:53:50;;;;;;;9.03;8.00;;;;;;;12.25;100.00;99941.94;5071137;28;20246;-60
2022/05/03 04:56:18;;;;;;;9.30;8.17;;;;;;;12.38;99.65;99942.81;5070008;28;20286;-60
2022/05/03 04:58:43;;;;;;;9.13;8.30;;;;;;;12.48;98.17;99939.63;5063988;28;20198;-59
2022/05/03 05:01:08;;;;;;;8.90;8.10;;;;;;;12.54;96.38;99949.53;5057257;28;20240;-61
2022/05/03 05:03:34;;;;;;;8.80;7.83;;;;;;;12.49;95.37;99952.44;5057592;28;20187;-60
2022/05/03 05:05:59;;;;;;;11.13;9.53;;;;;;;12.58;95.00;99940.69;5049415;28;20717;-61
2022/05/03 05:08:24;;;;;;;10.40;7.87;;;;;;;12.56;93.81;99948.50;5053250;28;20203;-61
2022/05/03 05:10:50;;;;;;;8.97;8.00;;;;;;;12.69;93.58;99952.88;5042606;28;20231;-61
2022/05/03 05:13:15;;;;;;;9.63;8.63;;;;;;;12.69;92.61;99956.28;5051613;28;20170;-61
2022/05/03 05:15:41;;;;;;;9.63;8.53;;;;;;;12.85;91.83;99955.28;5053313;28;20723;-60
2022/05/03 05:18:06;;;;;;;8.90;8.07;;;;;;;12.87;90.37;99951.66;5050916;28;20177;-59
2022/05/03 05:20:31;;;;;;;11.97;8.57;;;;;;;12.91;91.26;99952.28;5063733;28;20619;-60
2022/05/03 05:22:57;;;;;;;9.43;8.53;;;;;;;13.04;90.47;99954.88;5083163;28;20195;-61
2022/05/03 05:25:22;;;;;;;13.43;8.63;;;;;;;13.15;89.85;99957.56;5063071;28;20189;-60
2022/05/03 05:27:47;;;;;;;11.63;8.83;;;;;;;12.90;88.05;99951.47;5050126;28;20204;-60
2022/05/03 05:30:13;;;;;;;8.87;8.10;;;;;;;13.08;86.84;99958.91;5044886;28;20174;-61
2022/05/03 05:32:38;;;;;;;9.33;8.50;;;;;;;13.34;84.14;99964.06;5067484;28;20174;-60
2022/05/03 05:35:04;;;;;;;9.53;8.47;;;;;;;13.55;83.48;99966.97;5058567;28;20192;-62
2022/05/03 05:37:33;;;;;;;9.67;8.67;;;;;;;13.37;81.42;99964.72;5061858;28;20209;-61
2022/05/03 05:39:58;;;;;;;12.90;7.77;;;;;;;13.65;81.67;99969.75;5051434;28;20185;-59
2022/05/03 05:42:26;;;;;;;11.43;8.70;;;;;;;13.78;78.35;99951.59;5055870;28;20246;-60
2022/05/03 05:44:51;;;;;;;9.77;8.30;;;;;;;13.81;77.56;99967.72;5067998;28;20662;-59
2022/05/03 05:47:18;;;;;;;8.73;7.87;;;;;;;14.01;74.31;99968.06;5070067;28;20189;-60
2022/05/03 05:49:43;;;;;;;8.83;7.53;;;;;;;14.00;73.02;99964.69;5070571;28;20183;-60
2022/05/03 05:54:52;;;;;;;8.67;7.87;;;;;;;13.85;72.45;99976.94;5070642;28;20183;-60
2022/05/03 05:57:17;;;;;;;9.37;8.20;;;;;;;13.91;72.38;99975.66;5064553;28;20284;-60
2022/05/03 05:59:43;;;;;;;14.43;8.03;;;;;;;13.98;73.29;99976.03;5050738;28;20534;-61
2022/05/03 06:02:08;;;;;;;8.83;7.43;;;;;;;13.98;71.29;99979.47;5055724;28;20233;-60
2022/05/03 06:04:33;;;;;;;7.77;7.03;;;;;;;14.00;71.82;99979.34;5062629;28;20237;-59
2022/05/03 06:06:59;;;;;;;9.37;6.67;;;;;;;14.19;69.90;99981.47;5061230;28;20285;-59
2022/05/03 06:09:25;;;;;;;7.93;6.47;;;;;;;14.32;69.54;99984.81;5057228;28;20204;-59
2022/05/03 06:11:51;;;;;;;8.93;7.00;;;;;;;14.38;67.90;99985.31;5074893;28;20629;-59
2022/05/03 06:14:16;;;;;;;8.23;7.07;;;;;;;14.09;68.96;99986.47;5073575;28;20671;-58
2022/05/03 06:16:56;;;;;;;13.17;7.00;;;;;;;14.26;69.96;99985.25;5073193;28;20205;-59
2022/05/03 06:19:22;;;;;;;8.63;7.07;;;;;;;14.54;67.63;99985.84;5070435;28;20519;-59
2022/05/03 06:21:48;;;;;;;8.07;7.27;;;;;;;14.72;66.83;99982.88;5056899;28;20227;-60
2022/05/03 06:24:13;;;;;;;6.93;6.30;;;;;;;15.03;65.50;99989.19;5070293;28;20298;-59
2022/05/03 06:26:39;;;;;;;7.53;6.77;;;;;;;15.12;63.89;99992.84;5089535;28;20180;-57
2022/05/03 06:29:06;;;;;;;7.80;6.97;;;;;;;15.30;63.67;99993.22;5069582;28;20185;-58
2022/05/03 06:31:33;;;;;;;8.77;7.13;;;;;;;15.50;62.92;99994.28;5054618;28;20205;-58
2022/05/03 06:33:59;;;;;;;7.77;6.37;;;;;;;15.68;61.03;99997.22;5072578;28;20662;-60
2022/05/03 06:36:25;;;;;;;7.07;6.37;;;;;;;15.94;60.30;99997.00;5076689;28;20192;-59
2022/05/03 06:38:50;;;;;;;7.23;6.53;;;;;;;16.13;59.81;99996.34;5073478;28;20227;-59
2022/05/03 06:41:18;;;;;;;8.80;6.10;;;;;;;16.12;60.01;100003.31;5063561;28;20228;-60
2022/05/03 06:43:44;;;;;;;7.07;6.37;;;;;;;16.12;58.26;99997.28;5073561;28;20520;-60
2022/05/03 06:46:10;;;;;;;7.00;6.30;;;;;;;15.98;59.02;100007.00;5073735;28;20169;-60
2022/05/03 06:48:36;;;;;;;8.50;7.57;;;;;;;16.22;58.17;100008.56;5074494;28;20229;-59
2022/05/03 06:51:02;;;;;;;11.17;7.93;;;;;;;16.11;58.16;100006.03;5057604;28;20602;-60
2022/05/03 06:53:27;;;;;;;15.37;7.77;;;;;;;16.12;57.95;100010.28;5073398;28;20187;-59
2022/05/03 06:55:52;;;;;;;9.37;8.03;;;;;;;16.21;58.97;100009.56;5074203;28;20232;-58
2022/05/03 06:58:17;;;;;;;14.33;8.43;;;;;;;15.88;60.60;100013.84;5073760;28;20222;-58
2022/05/03 07:00:43;;;;;;;11.20;8.23;;;;;;;15.97;59.67;100010.53;5052392;28;20290;-59
2022/05/03 07:03:08;;;;;;;11.83;7.87;;;;;;;16.10;58.91;100014.75;5062714;28;20620;-59
2022/05/03 07:05:34;;;;;;;14.73;7.77;;;;;;;16.17;59.54;100022.88;5073854;28;20188;-59
2022/05/03 07:07:59;;;;;;;9.30;6.13;;;;;;;16.21;56.89;100024.28;5073698;28;20177;-59
2022/05/03 07:10:25;;;;;;;7.43;6.50;;;;;;;16.05;57.58;100017.72;5066389;28;20286;-59
2022/05/03 07:12:50;;;;;;;10.00;6.83;;;;;;;15.78;59.21;100023.28;5086353;28;20187;-59
2022/05/03 07:15:15;;;;;;;9.97;6.57;;;;;;;16.01;58.51;100024.06;5062749;28;20227;-60
2022/05/03 07:23:11;;;;;;;8.30;6.63;;;;;;;17.28;54.21;100032.09;5083778;28;20317;-60
2022/05/03 07:25:38;;;;;;;10.87;6.87;;;;;;;17.51;53.00;100027.53;5072874;28;20173;-58
2022/05/03 07:28:05;;;;;;;10.47;6.60;;;;;;;17.89;51.17;100038.22;5073234;28;20254;-60
2022/05/03 07:30:30;;;;;;;7.57;6.07;;;;;;;18.37;50.02;100028.88;5036695;28;20282;-60
2022/05/03 07:32:56;;;;;;;8.23;6.50;;;;;;;19.32;47.67;100029.06;5047487;28;20302;-60
2022/05/03 07:35:21;;;;;;;8.47;6.53;;;;;;;19.70;46.27;100029.03;5053324;28;20182;-60
2022/05/03 07:37:46;;;;;;;11.90;6.30;;;;;;;19.52;45.82;100028.03;5052603;28;20169;-59
2022/05/03 07:40:12;;;;;;;13.60;6.40;;;;;;;19.74;45.74;100030.41;5044200;28;20174;-60
2022/05/03 07:42:38;;;;;;;9.17;6.30;;;;;;;20.36;44.45;100035.00;5071819;28;20187;-59
2022/05/03 07:45:04;;;;;;;12.63;6.60;;;;;;;20.23;44.15;100038.81;5073147;28;20590;-60
2022/05/03 07:47:30;;;;;;;14.63;7.00;;;;;;;20.95;42.66;100035.38;5071225;28;20323;-60
2022/05/03 07:49:55;;;;;;;6.83;5.97;;;;;;;21.40;42.03;100041.34;5072121;28;20214;-60
2022/05/03 07:52:20;;;;;;;5.47;5.03;;;;;;;22.06;40.77;100039.81;5078970;28;20223;-60
2022/05/03 07:54:46;;;;;;;9.40;5.70;;;;;;;22.76;36.72;100047.44;5073141;28;20624;-60
2022/05/03 07:57:12;;;;;;;6.63;5.10;;;;;;;22.63;37.12;100037.47;5072235;28;20494;-58
2022/05/03 07:59:38;;;;;;;9.70;5.60;;;;;;;22.86;36.80;100042.84;5072936;28;20581;-58
2022/05/03 08:02:03;;;;;;;8.40;5.60;;;;;;;23.06;36.80;100048.56;5066261;28;20228;-60
2022/05/03 08:04:28;;;;;;;7.22;5.20;;;;;;;23.92;34.88;100050.63;5057344;28;20671;-59
2022/05/03 08:06:54;;;;;;;6.65;4.80;;;;;;;23.91;34.87;100038.47;5061417;28;20267;-58
2022/05/03 08:09:19;;;;;;;5.57;5.07;;;;;;;23.30;34.58;100041.66;5062734;28;20196;-60
2022/05/03 08:11:44;;;;;;;8.52;4.95;;;;;;;22.11;36.87;100054.25;5055695;28;20228;-59
2022/05/03 08:14:10;;;;;;;7.85;4.63;;;;;;;23.29;35.55;100043.44;5068364;28;20274;-59
2022/05/03 08:16:36;;;;;;;5.60;4.80;;;;;;;22.55;36.75;100056.59;5067448;28;20252;-61
2022/05/03 08:19:01;;;;;;;5.68;5.00;;;;;;;22.09;37.60;100052.59;5061037;28;20177;-60
2022/05/03 08:21:27;;;;;;;5.93;5.30;;;;;;;22.24;37.87;100051.97;5057234;28;20319;-60
2022/05/03 08:23:54;;;;;;;5.63;4.50;;;;;;;22.39;37.63;100052.19;5056545;28;20184;-59
2022/05/03 08:26:19;;;;;;;6.90;5.30;;;;;;;23.58;34.68;100049.09;5062098;28;20227;-60
2022/05/03 08:28:45;;;;;;;5.93;5.18;;;;;;;23.88;34.12;100047.50;5071911;28;20215;-60
2022/05/03 08:31:11;;;;;;;8.15;5.10;;;;;;;24.05;33.81;100057.94;5044990;28;20260;-59
2022/05/03 08:33:36;;;;;;;6.95;5.32;;;;;;;24.70;32.92;100063.78;5045543;28;20193;-58
2022/05/03 08:36:05;;;;;;;6.95;4.88;;;;;;;24.15;33.51;100069.88;5062531;28;20208;-59
2022/05/03 08:44:01;;;;;;;10.15;4.97;;;;;;;21.99;37.10;100070.25;5050908;28;20326;-57
2022/05/03 08:46:29;;;;;;;6.50;4.57;;;;;;;22.36;36.86;100073.44;5053802;28;20193;-58
2022/05/03 08:49:02;;;;;;;6.10;4.90;;;;;;;22.87;35.41;100078.56;5056313;28;20174;-58
2022/05/03 08:51:31;;;;;;;6.27;5.67;;;;;;;22.86;35.90;100067.28;5052270;28;20303;-58
2022/05/03 08:53:59;;;;;;;6.03;4.83;;;;;;;22.44;36.71;100065.63;5056209;28;20180;-58
2022/05/03 08:56:24;;;;;;;7.67;5.60;;;;;;;22.87;36.34;100071.53;5051566;28;20201;-57
2022/05/03 08:58:51;;;;;;;10.80;5.70;;;;;;;22.56;36.72;100069.56;5050880;28;20182;-57
2022/05/03 09:01:17;;;;;;;6.67;5.80;;;;;;;21.98;37.61;100062.53;5051639;28;20216;-58
2022/05/03 09:03:42;;;;;;;7.47;5.20;;;;;;;23.05;35.50;100067.91;5071177;28;20521;-57
2022/05/03 09:06:08;;;;;;;5.43;4.93;;;;;;;24.28;34.13;100071.13;5071561;28;20204;-58
2022/05/03 09:08:34;;;;;;;5.93;5.15;;;;;;;24.41;33.81;100071.38;5071920;28;20239;-57
2022/05/03 09:11:12;;;;;;;7.53;4.70;;;;;;;24.59;34.04;100068.41;5060467;28;20257;-58
2022/05/03 09:13:37;;;;;;;5.50;4.95;;;;;;;24.43;33.67;100069.34;5071319;28;20192;-58
2022/05/03 09:16:10;;;;;;;8.70;5.22;;;;;;;23.55;35.68;100067.84;5071275;28;20586;-61
2022/05/03 09:18:36;;;;;;;11.77;6.68;;;;;;;25.52;33.63;100064.81;5070777;28;20172;-59
2022/05/03 09:23:59;;;;;;;6.20;5.38;;;;;;;24.95;34.37;100070.44;5077204;28;20192;-59
2022/05/03 09:26:31;;;;;;;5.63;5.13;;;;;;;23.45;35.02;100068.03;5071347;28;20624;-60
2022/05/03 09:29:05;;;;;;;5.50;4.93;;;;;;;23.75;35.53;100068.25;5059410;28;20718;-61
2022/05/03 09:31:36;;;;;;;7.60;5.20;;;;;;;22.39;37.28;100073.16;5073073;28;20234;-59
2022/05/03 09:34:19;;;;;;;6.88;5.35;;;;;;;21.79;39.10;100074.91;5075110;28;20255;-60
2022/05/03 09:36:51;;;;;;;5.72;5.10;;;;;;;21.84;39.70;100064.78;5071101;28;20275;-61
2022/05/03 09:39:27;;;;;;;5.70;5.07;;;;;;;22.07;38.45;100062.41;5071609;28;20606;-61
2022/05/03 09:42:09;;;;;;;6.50;5.35;;;;;;;22.53;37.47;100077.75;5059310;28;20921;-59
2022/05/03 09:44:40;;;;;;;4.73;4.33;;;;;;;21.98;38.05;100063.38;5070440;28;20225;-60
2022/05/03 09:47:09;;;;;;;6.80;4.87;;;;;;;22.26;37.93;100070.97;5065810;28;20189;-60
2022/05/03 09:49:37;;;;;;;5.73;5.13;;;;;;;22.22;37.54;100073.06;5054289;28;20699;-56
2022/05/03 09:52:04;;;;;;;5.93;4.90;;;;;;;21.24;39.92;100057.78;5061189;28;20251;-57
2022/05/03 09:54:49;;;;;;;5.67;4.73;;;;;;;22.34;38.23;100063.13;5055560;28;20541;-58
2022/05/03 09:57:22;;;;;;;6.53;4.40;;;;;;;22.43;37.20;100053.50;5054364;28;20601;-57
2022/05/03 09:59:49;;;;;;;6.40;4.87;;;;;;;23.19;35.77;100042.81;5057917;28;20169;-58
2022/05/03 10:02:19;;;;;;;5.37;4.87;;;;;;;23.22;36.10;100053.00;5060231;28;20266;-58
2022/05/03 10:04:49;;;;;;;4.50;4.00;;;;;;;23.74;35.22;100050.84;5075532;28;20516;-59
2022/05/03 10:07:15;;;;;;;5.07;4.40;;;;;;;23.41;35.19;100051.00;5074800;28;20256;-59
2022/05/03 10:09:42;;;;;;;5.80;4.82;;;;;;;23.17;34.92;100058.75;5074585;28;20686;-58
2022/05/03 10:12:11;;;;;;;8.53;4.30;;;;;;;23.02;36.07;100049.88;5053509;28;20649;-61
2022/05/03 10:14:37;;;;;;;6.03;4.90;;;;;;;23.76;35.08;100048.88;5062208;28;20244;-61
2022/05/03 10:22:39;;;;;;;9.73;7.87;;;;;;;22.68;36.93;100046.47;5080561;28;20216;-56
2022/05/03 10:25:05;;;;;;;5.93;5.40;;;;;;;23.24;35.66;100044.97;5069395;28;20258;-59
2022/05/03 10:27:32;;;;;;;5.20;4.67;;;;;;;22.95;36.41;100052.34;5057953;28;20182;-58
2022/05/03 10:30:21;;;;;;;7.53;5.13;;;;;;;22.67;37.63;100047.44;5054757;28;20240;-63
2022/05/03 10:33:21;;;;;;;6.73;5.60;;;;;;;21.53;39.27;100043.53;5043516;28;20633;-59
2022/05/03 10:35:51;;;;;;;6.70;5.03;;;;;;;21.14;41.33;100042.19;5032161;28;20209;-60
2022/05/03 10:38:34;;;;;;;5.17;4.67;;;;;;;21.27;41.68;100045.22;5056389;28;20185;-61
2022/05/03 10:41:00;;;;;;;5.00;4.47;;;;;;;21.74;39.80;100035.28;5051337;28;20224;-61
2022/05/03 10:43:27;;;;;;;5.23;4.73;;;;;;;21.60;39.67;100027.06;5062716;28;20201;-61
2022/05/03 10:45:57;;;;;;;5.67;5.10;;;;;;;21.43;39.02;100039.25;5053539;28;20181;-61
2022/05/03 10:48:30;;;;;;;6.60;6.00;;;;;;;21.06;41.34;100039.50;5052871;28;20178;-62
2022/05/03 10:51:01;;;;;;;6.20;5.47;;;;;;;20.95;40.57;100033.56;5049847;28;20233;-61
2022/05/03 10:53:29;;;;;;;11.80;10.60;;;;;;;21.57;39.32;100035.25;5053049;28;20199;-60
2022/05/03 10:56:08;;;;;;;6.13;5.50;;;;;;;21.43;39.99;100028.78;5054186;28;20706;-61
2022/05/03 10:58:39;;;;;;;27.17;21.97;;;;;;;21.95;39.74;100024.41;5054375;28;20833;-60
2022/05/03 11:01:05;;;;;;;9.13;4.63;;;;;;;22.34;38.73;100029.06;5037594;28;20279;-60
2022/05/03 11:03:36;;;;;;;8.53;4.60;;;;;;;22.49;37.45;100024.03;5064424;28;20188;-60
2022/05/03 11:06:23;;;;;;;6.63;4.97;;;;;;;22.35;37.25;100016.75;5053756;28;20173;-59
2022/05/03 11:09:18;;;;;;;7.87;4.80;;;;;;;21.63;40.10;100018.06;5056108;28;20209;-60
2022/05/03 11:11:47;;;;;;;6.80;6.10;;;;;;;21.72;41.72;100016.34;5056181;28;20232;-60
2022/05/03 11:14:21;;;;;;;5.47;5.07;;;;;;;22.03;41.37;100013.13;5069467;28;20232;-60
2022/05/03 11:17:08;;;;;;;6.73;5.50;;;;;;;21.54;41.00;100013.75;5062074;28;20714;-60
2022/05/03 11:19:49;;;;;;;7.73;5.70;;;;;;;21.11;42.28;100004.06;5073345;28;20834;-61
2022/05/03 11:22:18;;;;;;;9.33;5.50;;;;;;;21.23;41.75;100006.41;5059544;28;20243;-61
2022/05/03 11:24:45;;;;;;;6.97;5.23;;;;;;;22.09;40.97;100002.00;5072810;28;20192;-61
2022/05/03 11:27:11;;;;;;;6.30;5.70;;;;;;;21.90;40.36;100000.50;5071839;28;20655;-61
2022/05/03 11:29:41;;;;;;;5.93;5.27;;;;;;;21.76;41.04;100004.56;5073027;28;20187;-61
2022/05/03 11:32:07;;;;;;;6.33;5.50;;;;;;;21.48;41.41;99998.69;5024433;28;20229;-60
2022/05/03 11:34:33;;;;;;;10.00;6.17;;;;;;;21.39;42.28;99995.22;5053700;28;20640;-62
2022/05/03 11:36:58;;;;;;;8.17;6.70;;;;;;;21.03;42.99;99988.31;5052756;28;20189;-61
2022/05/03 11:39:24;;;;;;;5.60;5.10;;;;;;;20.96;43.28;100000.38;5053536;28;20243;-62
2022/05/03 11:41:50;;;;;;;6.90;6.20;;;;;;;20.41;43.44;99996.19;5056792;28;20299;-62
2022/05/03 11:44:16;;;;;;;7.50;5.83;;;;;;;20.69;43.84;100001.31;5054845;28;20181;-62
2022/05/03 11:46:44;;;;;;;6.37;5.80;;;;;;;21.07;43.37;99996.69;5053045;28;20178;-61
2022/05/03 11:49:11;;;;;;;10.47;6.30;;;;;;;21.82;42.00;99996.06;5053455;28;20181;-61
2022/05/03 11:57:13;;;;;;;6.77;5.33;;;;;;;21.22;42.95;99982.06;5044269;28;20291;-62
2022/05/03 11:59:40;;;;;;;7.33;5.33;;;;;;;21.58;41.98;99989.78;5038371;28;20213;-63
2022/05/03 12:02:17;;;;;;;8.50;5.87;;;;;;;20.96;42.54;99982.91;5056947;28;20725;-62
2022/05/03 12:05:05;;;;;;;6.10;5.57;;;;;;;20.92;43.43;99978.13;5055064;28;20501;-62
2022/05/03 12:07:42;;;;;;;5.93;4.80;;;;;;;20.84;43.76;99983.31;5058119;28;20631;-62
2022/05/03 12:10:20;;;;;;;6.20;5.30;;;;;;;20.70;43.45;99975.03;5043017;28;20272;-62
2022/05/03 12:12:48;;;;;;;7.67;5.80;;;;;;;20.71;43.92;99974.06;5068057;28;20183;-62
2022/05/03 12:15:24;;;;;;;6.03;5.43;;;;;;;20.56;44.04;99981.59;5072549;28;20224;-61
2022/05/03 12:17:55;;;;;;;8.20;5.20;;;;;;;20.27;43.97;99974.84;5061511;28;20188;-63
2022/05/03 12:20:21;;;;;;;8.00;5.50;;;;;;;20.34;44.37;99969.03;5046028;28;20606;-60